sensor_id;sensor_type;location;lat;lon;timestamp;temperature;humidity
64869;DHT22;51349;52.424;10.840;2023-07-20T00:03:14;16.00;99.90
64869;DHT22;51349;52.424;10.840;2023-07-20T00:08:19;16.10;99.90
64869;DHT22;51349;52.424;10.840;2023-07-20T00:13:20;15.90;99.90
64869;DHT22;51349;52.424;10.840;2023-07-20T00:18:21;15.90;99.90
64869;DHT22;51349;52.424;10.840;2023-07-20T00:23:22;15.90;99.90
64869;DHT22;51349;52.424;10.840;2023-07-20T00:28:23;15.90;99.90
64869;DHT22;51349;52.424;10.840;2023-07-20T00:33:23;15.80;99.90
64869;DHT22;51349;52.424;10.840;2023-07-20T00:38:24;15.70;99.90
64869;DHT22;51349;52.424;10.840;2023-07-20T00:43:25;15.70;99.90
64869;DHT22;51349;52.424;10.840;2023-07-20T00:48:25;15.60;99.90
64869;DHT22;51349;52.424;10.840;2023-07-20T00:53:26;15.70;99.90
64869;DHT22;51349;52.424;10.840;2023-07-20T00:58:27;15.60;99.90
64869;DHT22;51349;52.424;10.840;2023-07-20T01:03:28;15.70;99.90
64869;DHT22;51349;52.424;10.840;2023-07-20T01:08:40;15.60;99.90
64869;DHT22;51349;52.424;10.840;2023-07-20T01:13:43;15.50;99.90
64869;DHT22;51349;52.424;10.840;2023-07-20T01:18:44;15.50;99.90
64869;DHT22;51349;52.424;10.840;2023-07-20T01:34:23;15.30;99.90
64869;DHT22;51349;52.424;10.840;2023-07-20T01:39:25;15.10;99.90
64869;DHT22;51349;52.424;10.840;2023-07-20T01:44:27;15.10;99.90
64869;DHT22;51349;52.424;10.840;2023-07-20T01:49:28;15.10;99.90
64869;DHT22;51349;52.424;10.840;2023-07-20T01:54:28;14.70;99.90
64869;DHT22;51349;52.424;10.840;2023-07-20T01:59:29;14.60;99.90
64869;DHT22;51349;52.424;10.840;2023-07-20T02:04:30;14.70;99.90
64869;DHT22;51349;52.424;10.840;2023-07-20T02:09:30;14.70;99.90
64869;DHT22;51349;52.424;10.840;2023-07-20T02:14:31;14.60;99.90
64869;DHT22;51349;52.424;10.840;2023-07-20T02:19:32;14.40;99.90
64869;DHT22;51349;52.424;10.840;2023-07-20T02:24:33;14.40;99.90
64869;DHT22;51349;52.424;10.840;2023-07-20T02:29:34;14.40;99.90
64869;DHT22;51349;52.424;10.840;2023-07-20T02:34:36;14.30;99.90
64869;DHT22;51349;52.424;10.840;2023-07-20T02:39:37;14.30;99.90
64869;DHT22;51349;52.424;10.840;2023-07-20T02:44:37;14.20;99.90
64869;DHT22;51349;52.424;10.840;2023-07-20T02:49:38;14.20;99.90
64869;DHT22;51349;52.424;10.840;2023-07-20T02:54:38;14.20;99.90
64869;DHT22;51349;52.424;10.840;2023-07-20T02:59:39;14.30;99.90
64869;DHT22;51349;52.424;10.840;2023-07-20T03:04:40;14.20;99.90
64869;DHT22;51349;52.424;10.840;2023-07-20T03:09:40;14.20;99.90
64869;DHT22;51349;52.424;10.840;2023-07-20T03:14:41;14.20;99.90
64869;DHT22;51349;52.424;10.840;2023-07-20T03:19:41;14.10;99.90
64869;DHT22;51349;52.424;10.840;2023-07-20T03:24:43;14.20;99.90
64869;DHT22;51349;52.424;10.840;2023-07-20T03:29:43;14.10;99.90
64869;DHT22;51349;52.424;10.840;2023-07-20T03:34:44;14.00;99.90
64869;DHT22;51349;52.424;10.840;2023-07-20T03:39:46;13.90;99.90
64869;DHT22;51349;52.424;10.840;2023-07-20T03:44:46;14.00;99.90
64869;DHT22;51349;52.424;10.840;2023-07-20T03:49:47;13.90;99.90
64869;DHT22;51349;52.424;10.840;2023-07-20T03:54:47;13.90;99.90
64869;DHT22;51349;52.424;10.840;2023-07-20T03:59:48;14.00;99.90
64869;DHT22;51349;52.424;10.840;2023-07-20T04:04:49;14.00;99.90
64869;DHT22;51349;52.424;10.840;2023-07-20T04:09:50;14.20;99.90
64869;DHT22;51349;52.424;10.840;2023-07-20T04:14:50;14.20;99.90
64869;DHT22;51349;52.424;10.840;2023-07-20T04:19:51;14.20;99.90
64869;DHT22;51349;52.424;10.840;2023-07-20T04:24:52;14.30;99.90
64869;DHT22;51349;52.424;10.840;2023-07-20T04:29:52;14.40;99.90
64869;DHT22;51349;52.424;10.840;2023-07-20T04:34:53;14.50;99.90
64869;DHT22;51349;52.424;10.840;2023-07-20T04:39:54;14.60;99.90
64869;DHT22;51349;52.424;10.840;2023-07-20T04:44:54;14.70;99.90
64869;DHT22;51349;52.424;10.840;2023-07-20T04:49:55;14.60;99.90
64869;DHT22;51349;52.424;10.840;2023-07-20T04:54:56;14.70;99.90
64869;DHT22;51349;52.424;10.840;2023-07-20T04:59:57;14.80;99.90
64869;DHT22;51349;52.424;10.840;2023-07-20T05:04:58;15.20;99.90
64869;DHT22;51349;52.424;10.840;2023-07-20T05:09:58;15.40;99.90
64869;DHT22;51349;52.424;10.840;2023-07-20T05:14:59;15.60;99.90
64869;DHT22;51349;52.424;10.840;2023-07-20T05:20:00;15.60;99.90
64869;DHT22;51349;52.424;10.840;2023-07-20T05:25:01;15.50;99.90
64869;DHT22;51349;52.424;10.840;2023-07-20T05:30:01;15.60;99.90
64869;DHT22;51349;52.424;10.840;2023-07-20T05:35:03;15.60;99.90
64869;DHT22;51349;52.424;10.840;2023-07-20T05:40:05;15.60;99.90
64869;DHT22;51349;52.424;10.840;2023-07-20T05:45:06;15.70;99.90
64869;DHT22;51349;52.424;10.840;2023-07-20T05:50:08;15.70;99.90
64869;DHT22;51349;52.424;10.840;2023-07-20T05:55:08;15.70;99.90
64869;DHT22;51349;52.424;10.840;2023-07-20T06:00:09;15.70;99.90
64869;DHT22;51349;52.424;10.840;2023-07-20T06:05:10;15.60;99.90
64869;DHT22;51349;52.424;10.840;2023-07-20T06:10:12;15.60;99.90
64869;DHT22;51349;52.424;10.840;2023-07-20T06:15:33;15.40;99.90
64869;DHT22;51349;52.424;10.840;2023-07-20T06:20:35;15.30;99.90
64869;DHT22;51349;52.424;10.840;2023-07-20T06:25:36;15.40;99.90
64869;DHT22;51349;52.424;10.840;2023-07-20T06:30:36;15.40;99.90
64869;DHT22;51349;52.424;10.840;2023-07-20T06:35:37;15.40;99.90
64869;DHT22;51349;52.424;10.840;2023-07-20T06:40:38;15.40;99.90
64869;DHT22;51349;52.424;10.840;2023-07-20T06:45:38;15.40;99.90
64869;DHT22;51349;52.424;10.840;2023-07-20T06:50:39;15.20;99.90
64869;DHT22;51349;52.424;10.840;2023-07-20T06:55:42;15.10;99.90
64869;DHT22;51349;52.424;10.840;2023-07-20T07:00:42;15.00;99.90
64869;DHT22;51349;52.424;10.840;2023-07-20T07:05:43;14.90;99.90
64869;DHT22;51349;52.424;10.840;2023-07-20T07:10:46;15.20;99.90
64869;DHT22;51349;52.424;10.840;2023-07-20T07:15:46;15.20;99.90
64869;DHT22;51349;52.424;10.840;2023-07-20T07:20:51;15.30;99.90
64869;DHT22;51349;52.424;10.840;2023-07-20T07:25:52;15.50;99.90
64869;DHT22;51349;52.424;10.840;2023-07-20T07:30:55;15.60;99.90
64869;DHT22;51349;52.424;10.840;2023-07-20T07:35:55;15.60;99.90
64869;DHT22;51349;52.424;10.840;2023-07-20T07:40:57;15.80;99.90
64869;DHT22;51349;52.424;10.840;2023-07-20T07:45:58;16.00;99.90
64869;DHT22;51349;52.424;10.840;2023-07-20T07:50:59;16.30;99.90
64869;DHT22;51349;52.424;10.840;2023-07-20T07:55:59;16.80;99.90
64869;DHT22;51349;52.424;10.840;2023-07-20T08:01:01;16.80;99.90
64869;DHT22;51349;52.424;10.840;2023-07-20T08:06:01;16.90;99.90
64869;DHT22;51349;52.424;10.840;2023-07-20T08:11:04;17.30;99.90
64869;DHT22;51349;52.424;10.840;2023-07-20T08:16:05;17.00;99.90
64869;DHT22;51349;52.424;10.840;2023-07-20T08:21:06;17.30;99.90
64869;DHT22;51349;52.424;10.840;2023-07-20T08:26:07;17.80;99.90
64869;DHT22;51349;52.424;10.840;2023-07-20T08:31:07;18.70;99.90
64869;DHT22;51349;52.424;10.840;2023-07-20T08:36:08;19.20;99.90
64869;DHT22;51349;52.424;10.840;2023-07-20T08:41:09;20.60;99.90
64869;DHT22;51349;52.424;10.840;2023-07-20T08:46:12;20.00;99.90
64869;DHT22;51349;52.424;10.840;2023-07-20T08:51:14;21.10;99.90
64869;DHT22;51349;52.424;10.840;2023-07-20T08:56:16;21.50;99.90
64869;DHT22;51349;52.424;10.840;2023-07-20T09:01:19;20.60;99.90
64869;DHT22;51349;52.424;10.840;2023-07-20T09:06:20;21.50;99.90
64869;DHT22;51349;52.424;10.840;2023-07-20T09:11:21;22.40;99.90
64869;DHT22;51349;52.424;10.840;2023-07-20T09:16:22;21.80;99.90
64869;DHT22;51349;52.424;10.840;2023-07-20T09:21:22;21.70;99.90
64869;DHT22;51349;52.424;10.840;2023-07-20T09:26:23;23.20;99.90
64869;DHT22;51349;52.424;10.840;2023-07-20T09:31:23;23.30;98.60
64869;DHT22;51349;52.424;10.840;2023-07-20T09:36:26;22.10;98.40
64869;DHT22;51349;52.424;10.840;2023-07-20T09:41:31;23.10;98.20
64869;DHT22;51349;52.424;10.840;2023-07-20T09:46:47;21.50;99.90
64869;DHT22;51349;52.424;10.840;2023-07-20T09:51:48;22.20;96.80
64869;DHT22;51349;52.424;10.840;2023-07-20T09:56:51;23.20;98.10
64869;DHT22;51349;52.424;10.840;2023-07-20T10:01:53;22.60;95.10
64869;DHT22;51349;52.424;10.840;2023-07-20T10:06:59;22.40;92.40
64869;DHT22;51349;52.424;10.840;2023-07-20T10:12:04;23.70;94.80
64869;DHT22;51349;52.424;10.840;2023-07-20T10:17:05;23.90;92.30
64869;DHT22;51349;52.424;10.840;2023-07-20T10:22:17;23.60;92.10
64869;DHT22;51349;52.424;10.840;2023-07-20T10:27:18;23.50;91.20
64869;DHT22;51349;52.424;10.840;2023-07-20T10:32:20;23.60;92.40
64869;DHT22;51349;52.424;10.840;2023-07-20T10:38:00;23.10;90.30
64869;DHT22;51349;52.424;10.840;2023-07-20T10:43:08;22.80;90.90
64869;DHT22;51349;52.424;10.840;2023-07-20T10:48:23;21.80;91.30
64869;DHT22;51349;52.424;10.840;2023-07-20T10:53:24;22.40;91.40
64869;DHT22;51349;52.424;10.840;2023-07-20T10:58:25;22.40;91.50
64869;DHT22;51349;52.424;10.840;2023-07-20T11:03:37;22.60;91.10
64869;DHT22;51349;52.424;10.840;2023-07-20T11:08:42;22.90;91.20
64869;DHT22;51349;52.424;10.840;2023-07-20T11:13:57;22.90;90.10
64869;DHT22;51349;52.424;10.840;2023-07-20T11:19:00;22.30;90.70
64869;DHT22;51349;52.424;10.840;2023-07-20T11:24:03;22.30;91.20
64869;DHT22;51349;52.424;10.840;2023-07-20T11:29:04;22.90;90.80
64869;DHT22;51349;52.424;10.840;2023-07-20T11:34:05;22.90;87.50
64869;DHT22;51349;52.424;10.840;2023-07-20T11:39:07;23.30;90.30
64869;DHT22;51349;52.424;10.840;2023-07-20T11:44:10;22.70;90.70
64869;DHT22;51349;52.424;10.840;2023-07-20T11:49:13;21.80;90.60
64869;DHT22;51349;52.424;10.840;2023-07-20T11:54:14;22.30;90.90
64869;DHT22;51349;52.424;10.840;2023-07-20T11:59:14;23.10;91.10
64869;DHT22;51349;52.424;10.840;2023-07-20T12:04:15;22.90;90.60
64869;DHT22;51349;52.424;10.840;2023-07-20T12:09:16;23.00;88.90
64869;DHT22;51349;52.424;10.840;2023-07-20T12:14:17;22.80;87.10
64869;DHT22;51349;52.424;10.840;2023-07-20T12:19:18;22.30;88.30
64869;DHT22;51349;52.424;10.840;2023-07-20T12:24:19;22.30;88.40
64869;DHT22;51349;52.424;10.840;2023-07-20T12:29:20;22.80;88.70
64869;DHT22;51349;52.424;10.840;2023-07-20T12:34:20;23.20;87.50
64869;DHT22;51349;52.424;10.840;2023-07-20T12:39:24;23.40;88.80
64869;DHT22;51349;52.424;10.840;2023-07-20T12:44:25;23.70;82.20
64869;DHT22;51349;52.424;10.840;2023-07-20T12:49:25;23.50;79.40
64869;DHT22;51349;52.424;10.840;2023-07-20T12:54:26;23.20;79.70
64869;DHT22;51349;52.424;10.840;2023-07-20T12:59:26;23.10;81.10
64869;DHT22;51349;52.424;10.840;2023-07-20T13:04:27;23.50;81.30
64869;DHT22;51349;52.424;10.840;2023-07-20T13:09:28;23.30;79.90
64869;DHT22;51349;52.424;10.840;2023-07-20T13:14:29;23.50;81.50
64869;DHT22;51349;52.424;10.840;2023-07-20T13:19:29;23.50;81.20
64869;DHT22;51349;52.424;10.840;2023-07-20T13:24:30;24.10;82.80
64869;DHT22;51349;52.424;10.840;2023-07-20T13:29:31;23.60;81.50
64869;DHT22;51349;52.424;10.840;2023-07-20T13:34:32;23.30;79.40
64869;DHT22;51349;52.424;10.840;2023-07-20T13:39:33;23.40;80.50
64869;DHT22;51349;52.424;10.840;2023-07-20T13:44:34;23.50;78.80
64869;DHT22;51349;52.424;10.840;2023-07-20T13:49:35;23.20;77.40
64869;DHT22;51349;52.424;10.840;2023-07-20T13:54:35;23.00;80.60
64869;DHT22;51349;52.424;10.840;2023-07-20T13:59:36;22.80;83.30
64869;DHT22;51349;52.424;10.840;2023-07-20T14:04:37;22.50;78.90
64869;DHT22;51349;52.424;10.840;2023-07-20T14:09:37;22.30;78.20
64869;DHT22;51349;52.424;10.840;2023-07-20T14:14:38;22.30;80.70
64869;DHT22;51349;52.424;10.840;2023-07-20T14:19:38;22.40;83.00
64869;DHT22;51349;52.424;10.840;2023-07-20T14:24:39;22.30;80.50
64869;DHT22;51349;52.424;10.840;2023-07-20T14:29:40;22.30;81.00
64869;DHT22;51349;52.424;10.840;2023-07-20T14:34:40;22.20;79.80
64869;DHT22;51349;52.424;10.840;2023-07-20T14:39:41;22.10;83.50
64869;DHT22;51349;52.424;10.840;2023-07-20T14:44:42;22.00;81.30
64869;DHT22;51349;52.424;10.840;2023-07-20T14:49:42;21.90;80.40
64869;DHT22;51349;52.424;10.840;2023-07-20T14:54:43;22.00;81.90
64869;DHT22;51349;52.424;10.840;2023-07-20T14:59:44;21.90;85.60
64869;DHT22;51349;52.424;10.840;2023-07-20T15:04:48;21.60;84.80
64869;DHT22;51349;52.424;10.840;2023-07-20T15:09:49;21.50;86.60
64869;DHT22;51349;52.424;10.840;2023-07-20T15:15:09;21.60;84.70
64869;DHT22;51349;52.424;10.840;2023-07-20T15:20:12;21.70;83.70
64869;DHT22;51349;52.424;10.840;2023-07-20T15:25:13;21.60;84.30
64869;DHT22;51349;52.424;10.840;2023-07-20T15:30:13;22.10;82.40
64869;DHT22;51349;52.424;10.840;2023-07-20T15:35:15;22.10;86.20
64869;DHT22;51349;52.424;10.840;2023-07-20T15:40:15;22.20;87.30
64869;DHT22;51349;52.424;10.840;2023-07-20T15:45:16;22.30;87.80
64869;DHT22;51349;52.424;10.840;2023-07-20T15:50:17;22.40;85.50
64869;DHT22;51349;52.424;10.840;2023-07-20T15:55:18;22.20;86.00
64869;DHT22;51349;52.424;10.840;2023-07-20T16:00:19;22.40;85.50
64869;DHT22;51349;52.424;10.840;2023-07-20T16:05:19;22.50;84.10
64869;DHT22;51349;52.424;10.840;2023-07-20T16:10:20;22.70;86.80
64869;DHT22;51349;52.424;10.840;2023-07-20T16:15:21;22.50;86.80
64869;DHT22;51349;52.424;10.840;2023-07-20T16:20:21;22.50;82.80
64869;DHT22;51349;52.424;10.840;2023-07-20T16:25:22;22.40;85.60
64869;DHT22;51349;52.424;10.840;2023-07-20T16:30:23;22.40;85.40
64869;DHT22;51349;52.424;10.840;2023-07-20T16:35:23;22.50;88.00
64869;DHT22;51349;52.424;10.840;2023-07-20T16:40:24;22.20;85.60
64869;DHT22;51349;52.424;10.840;2023-07-20T16:45:25;21.80;91.50
64869;DHT22;51349;52.424;10.840;2023-07-20T16:50:26;21.90;91.80
64869;DHT22;51349;52.424;10.840;2023-07-20T16:55:26;21.40;85.50
64869;DHT22;51349;52.424;10.840;2023-07-20T17:00:27;21.20;88.20
64869;DHT22;51349;52.424;10.840;2023-07-20T17:05:28;20.60;90.80
64869;DHT22;51349;52.424;10.840;2023-07-20T17:10:29;20.60;89.30
64869;DHT22;51349;52.424;10.840;2023-07-20T17:15:33;21.00;88.30
64869;DHT22;51349;52.424;10.840;2023-07-20T17:20:34;21.00;90.30
64869;DHT22;51349;52.424;10.840;2023-07-20T17:25:35;20.80;90.90
64869;DHT22;51349;52.424;10.840;2023-07-20T17:30:35;20.60;91.70
64869;DHT22;51349;52.424;10.840;2023-07-20T17:35:36;20.30;91.70
64869;DHT22;51349;52.424;10.840;2023-07-20T17:40:37;20.00;91.70
64869;DHT22;51349;52.424;10.840;2023-07-20T17:45:37;19.80;91.40
64869;DHT22;51349;52.424;10.840;2023-07-20T17:50:38;19.70;92.10
64869;DHT22;51349;52.424;10.840;2023-07-20T17:55:40;19.60;92.20
64869;DHT22;51349;52.424;10.840;2023-07-20T18:00:41;19.70;91.40
64869;DHT22;51349;52.424;10.840;2023-07-20T18:05:41;19.50;90.90
64869;DHT22;51349;52.424;10.840;2023-07-20T18:10:42;19.40;91.00
64869;DHT22;51349;52.424;10.840;2023-07-20T18:15:42;19.40;92.20
64869;DHT22;51349;52.424;10.840;2023-07-20T18:20:43;19.40;92.80
64869;DHT22;51349;52.424;10.840;2023-07-20T18:25:44;19.30;92.80
64869;DHT22;51349;52.424;10.840;2023-07-20T18:30:45;19.30;93.40
64869;DHT22;51349;52.424;10.840;2023-07-20T18:35:46;19.20;92.90
64869;DHT22;51349;52.424;10.840;2023-07-20T18:40:47;19.10;92.60
64869;DHT22;51349;52.424;10.840;2023-07-20T18:45:47;18.90;93.30
64869;DHT22;51349;52.424;10.840;2023-07-20T18:50:48;18.80;92.20
64869;DHT22;51349;52.424;10.840;2023-07-20T18:55:49;18.70;93.10
64869;DHT22;51349;52.424;10.840;2023-07-20T19:00:50;18.50;93.30
64869;DHT22;51349;52.424;10.840;2023-07-20T19:05:50;18.20;94.30
64869;DHT22;51349;52.424;10.840;2023-07-20T19:10:51;17.90;95.60
64869;DHT22;51349;52.424;10.840;2023-07-20T19:15:52;17.70;96.90
64869;DHT22;51349;52.424;10.840;2023-07-20T19:21:00;17.40;95.90
64869;DHT22;51349;52.424;10.840;2023-07-20T19:26:05;17.20;95.70
64869;DHT22;51349;52.424;10.840;2023-07-20T19:31:06;17.10;96.00
64869;DHT22;51349;52.424;10.840;2023-07-20T19:36:07;16.90;96.70
64869;DHT22;51349;52.424;10.840;2023-07-20T19:41:08;16.70;96.40
64869;DHT22;51349;52.424;10.840;2023-07-20T19:46:09;16.60;97.40
64869;DHT22;51349;52.424;10.840;2023-07-20T19:51:09;16.50;96.30
64869;DHT22;51349;52.424;10.840;2023-07-20T19:56:10;16.40;97.10
64869;DHT22;51349;52.424;10.840;2023-07-20T20:01:11;16.30;96.60
64869;DHT22;51349;52.424;10.840;2023-07-20T20:06:11;16.20;97.00
64869;DHT22;51349;52.424;10.840;2023-07-20T20:11:12;16.00;97.50
64869;DHT22;51349;52.424;10.840;2023-07-20T20:16:13;15.90;97.70
64869;DHT22;51349;52.424;10.840;2023-07-20T20:21:13;15.70;97.90
64869;DHT22;51349;52.424;10.840;2023-07-20T20:26:15;15.50;98.10
64869;DHT22;51349;52.424;10.840;2023-07-20T20:31:16;15.30;98.20
64869;DHT22;51349;52.424;10.840;2023-07-20T20:36:17;15.20;98.50
64869;DHT22;51349;52.424;10.840;2023-07-20T20:41:17;15.10;99.40
64869;DHT22;51349;52.424;10.840;2023-07-20T20:46:18;15.00;99.90
64869;DHT22;51349;52.424;10.840;2023-07-20T20:51:20;14.90;99.90
64869;DHT22;51349;52.424;10.840;2023-07-20T20:56:21;14.90;99.80
64869;DHT22;51349;52.424;10.840;2023-07-20T21:01:21;15.00;99.90
64869;DHT22;51349;52.424;10.840;2023-07-20T21:06:22;14.80;99.70
64869;DHT22;51349;52.424;10.840;2023-07-20T21:11:23;14.70;99.90
64869;DHT22;51349;52.424;10.840;2023-07-20T21:16:24;14.50;99.90
64869;DHT22;51349;52.424;10.840;2023-07-20T21:21:24;14.20;99.90
64869;DHT22;51349;52.424;10.840;2023-07-20T21:26:26;14.10;99.90
64869;DHT22;51349;52.424;10.840;2023-07-20T21:31:27;13.90;99.90
64869;DHT22;51349;52.424;10.840;2023-07-20T21:36:27;13.80;99.90
64869;DHT22;51349;52.424;10.840;2023-07-20T21:41:28;13.70;99.90
64869;DHT22;51349;52.424;10.840;2023-07-20T21:46:29;13.60;99.90
64869;DHT22;51349;52.424;10.840;2023-07-20T21:51:29;13.70;99.90
64869;DHT22;51349;52.424;10.840;2023-07-20T21:56:30;13.50;99.90
64869;DHT22;51349;52.424;10.840;2023-07-20T22:01:32;13.60;99.90
64869;DHT22;51349;52.424;10.840;2023-07-20T22:06:32;13.50;99.90
64869;DHT22;51349;52.424;10.840;2023-07-20T22:11:33;13.30;99.90
64869;DHT22;51349;52.424;10.840;2023-07-20T22:16:34;13.10;99.90
64869;DHT22;51349;52.424;10.840;2023-07-20T22:21:34;13.00;99.90
64869;DHT22;51349;52.424;10.840;2023-07-20T22:26:35;12.90;99.90
64869;DHT22;51349;52.424;10.840;2023-07-20T22:31:36;12.90;99.90
64869;DHT22;51349;52.424;10.840;2023-07-20T22:36:37;12.80;99.90
64869;DHT22;51349;52.424;10.840;2023-07-20T22:41:37;12.60;99.90
64869;DHT22;51349;52.424;10.840;2023-07-20T22:46:38;12.50;99.90
64869;DHT22;51349;52.424;10.840;2023-07-20T22:51:39;12.40;99.90
64869;DHT22;51349;52.424;10.840;2023-07-20T22:56:39;12.40;99.90
64869;DHT22;51349;52.424;10.840;2023-07-20T23:01:40;12.40;99.90
64869;DHT22;51349;52.424;10.840;2023-07-20T23:06:43;12.40;99.90
64869;DHT22;51349;52.424;10.840;2023-07-20T23:11:44;12.40;99.90
64869;DHT22;51349;52.424;10.840;2023-07-20T23:16:45;12.10;99.90
64869;DHT22;51349;52.424;10.840;2023-07-20T23:21:46;12.20;99.90
64869;DHT22;51349;52.424;10.840;2023-07-20T23:26:47;12.10;99.90
64869;DHT22;51349;52.424;10.840;2023-07-20T23:31:48;12.00;99.90
64869;DHT22;51349;52.424;10.840;2023-07-20T23:36:48;12.00;99.90
64869;DHT22;51349;52.424;10.840;2023-07-20T23:41:49;12.00;99.90
64869;DHT22;51349;52.424;10.840;2023-07-20T23:46:50;11.90;99.90
64869;DHT22;51349;52.424;10.840;2023-07-20T23:51:51;11.80;99.90
64869;DHT22;51349;52.424;10.840;2023-07-20T23:56:51;11.70;99.90
